Humidity-temperature Sensor

Selected Measurement Type: Air Temperature

 
Air Temperature [°C]     6 entries per hour
Showing data from 6/25/2015 (07:00:00 Z) to 6/24/2015 (00:01:00 Z)
Previous Next [ Day | 3-Days | 7-Days ]
First Last
Prev [ Day | 3-Days | 7-Days ] Next
First Last

Start Time:     :
End Time:     :     
Time (in GMT) :00 :50 :40 :30 :20 :10
Previous Next [ Day | 3-Days | 7-Days ]
First Last
Prev [ Day | 3-Days | 7-Days ] Next
First Last


123 => good data
MM => data is determined as missing
-- => data not received/configured
Back to Top Back to Top
6/25/2015 07:00 to 6:10 26.31 26.31 26.42 26.34 26.36 26.33
6/25/2015 06:00 to 5:10 26.35 26.37 26.37 26.46 26.37 26.45
6/25/2015 05:00 to 4:10 26.39 26.38 26.42 26.41 26.47 26.37
6/25/2015 04:00 to 3:10 26.55 26.56 26.57 26.51 26.47 26.65
6/25/2015 03:00 to 2:10 26.47 26.50 26.59 26.48 26.49 26.40
6/25/2015 02:00 to 1:10 26.59 26.59 26.55 26.62 26.55 26.57
6/25/2015 01:00 to 0:10 26.55 26.57 26.64 26.54 26.62 26.61
6/25/2015 00:00 to 23:10 26.75 26.60 26.71 26.64 26.67 26.79
6/24/2015 23:00 to 22:10 26.75 26.70 26.62 26.60 26.56 26.69
6/24/2015 22:00 to 21:10 26.63 26.61 26.48 26.53 26.38 26.46
6/24/2015 21:00 to 20:10 26.63 26.77 26.66 26.67 26.82 26.72
6/24/2015 20:00 to 19:10 26.76 26.79 26.84 26.84 26.91 26.76
6/24/2015 19:00 to 18:10 26.78 26.78 26.77 26.74 26.81 26.78
6/24/2015 18:00 to 17:10 26.85 26.79 26.58 26.68 26.60 26.63
6/24/2015 17:00 to 16:10 26.62 26.71 26.68 26.67 26.84 26.60
6/24/2015 16:00 to 15:10 26.76 26.80 26.80 26.81 26.79 26.96
6/24/2015 15:00 to 14:10 27.02 26.88 26.66 26.64 26.56 26.72
6/24/2015 14:00 to 13:10 26.43 26.51 26.52 26.44 26.64 26.46
6/24/2015 13:00 to 12:10 26.43 26.41 26.39 26.32 26.19 26.32
6/24/2015 12:00 to 11:10 26.29 26.29 26.26 26.18 25.86 26.17
6/24/2015 11:00 to 10:10 26.36 26.25 26.24 26.18 26.24 26.27
6/24/2015 10:00 to 9:10 26.39 26.24 26.40 26.32 26.26 26.29
6/24/2015 09:00 to 8:10 26.45 26.25 26.31 26.28 26.32 26.33
6/24/2015 08:00 to 7:10 26.28 26.30 26.33 26.42 26.37 26.31
6/24/2015 07:00 to 6:10 26.35 26.32 26.36 26.34 26.41 26.38
6/24/2015 06:00 to 5:10 26.42 26.36 26.34 26.40 26.51 26.46
6/24/2015 05:00 to 4:10 26.48 26.62 26.46 26.55 26.52 26.48
6/24/2015 04:00 to 3:10 26.66 26.56 26.52 26.53 26.58 26.63
6/24/2015 03:00 to 2:10 26.57 26.53 26.51 26.57 26.55 26.49
6/24/2015 02:00 to 1:10 26.60 26.52 26.53 26.50 26.52 26.48
6/24/2015 01:00 to 0:10 26.48 26.43 26.60 26.37 26.42 26.51